createdAt,value
2023-09-03T00:02:00.708Z,15.03
2023-09-03T00:04:27.819Z,14.96
2023-09-03T00:06:54.688Z,14.91
2023-09-03T00:09:21.571Z,14.86
2023-09-03T00:11:48.451Z,14.87
2023-09-03T00:14:15.368Z,14.89
2023-09-03T00:16:42.261Z,14.90
2023-09-03T00:19:10.606Z,14.88
2023-09-03T00:21:37.546Z,14.85
2023-09-03T00:24:04.478Z,14.80
2023-09-03T00:26:31.417Z,14.76
2023-09-03T00:28:58.419Z,14.74
2023-09-03T00:31:26.657Z,14.78
2023-09-03T00:33:53.582Z,14.73
2023-09-03T00:36:21.581Z,14.72
2023-09-03T00:38:49.009Z,14.70
2023-09-03T00:41:15.919Z,14.68
2023-09-03T00:43:42.900Z,14.69
2023-09-03T00:46:09.955Z,14.71
2023-09-03T00:48:37.421Z,14.71
2023-09-03T00:51:06.805Z,14.71
2023-09-03T00:53:35.221Z,14.62
2023-09-03T00:56:02.400Z,14.60
2023-09-03T00:58:29.477Z,14.56
2023-09-03T01:00:57.203Z,14.54
2023-09-03T01:03:24.386Z,14.53
2023-09-03T01:05:51.363Z,14.52
2023-09-03T01:08:18.768Z,14.49
2023-09-03T01:11:02.676Z,14.46
2023-09-03T01:13:33.149Z,14.42
2023-09-03T01:16:01.603Z,14.39
2023-09-03T01:18:29.723Z,14.34
2023-09-03T01:21:34.989Z,14.29
2023-09-03T01:24:07.462Z,14.17
2023-09-03T01:26:53.025Z,14.12
2023-09-03T01:29:20.993Z,14.08
2023-09-03T01:31:49.433Z,14.07
2023-09-03T01:34:16.566Z,14.02
2023-09-03T01:36:44.245Z,13.96
2023-09-03T01:39:11.136Z,13.96
2023-09-03T01:41:39.318Z,13.97
2023-09-03T01:44:06.364Z,14.00
2023-09-03T01:46:38.981Z,14.04
2023-09-03T01:49:14.268Z,14.07
2023-09-03T01:51:50.044Z,14.13
2023-09-03T01:54:22.257Z,14.11
2023-09-03T01:56:59.698Z,14.12
2023-09-03T01:59:34.387Z,14.12
2023-09-03T02:02:01.516Z,14.15
2023-09-03T02:04:28.634Z,14.14
2023-09-03T02:06:55.531Z,14.14
2023-09-03T02:09:22.374Z,14.12
2023-09-03T02:11:49.282Z,14.09
2023-09-03T02:14:16.229Z,14.08
2023-09-03T02:16:43.169Z,14.06
2023-09-03T02:19:10.664Z,14.02
2023-09-03T02:21:37.610Z,14.01
2023-09-03T02:24:04.759Z,14.01
2023-09-03T02:26:31.942Z,13.97
2023-09-03T02:28:58.835Z,13.92
2023-09-03T02:31:25.687Z,13.92
2023-09-03T02:33:52.522Z,13.93
2023-09-03T02:36:19.768Z,13.92
2023-09-03T02:38:46.730Z,13.89
2023-09-03T02:41:13.547Z,13.89
2023-09-03T02:43:40.397Z,13.92
2023-09-03T02:46:07.320Z,13.96
2023-09-03T02:48:34.375Z,13.99
2023-09-03T02:51:01.604Z,14.02
2023-09-03T02:53:28.728Z,14.05
2023-09-03T02:55:57.968Z,14.05
2023-09-03T02:58:24.863Z,14.03
2023-09-03T03:00:51.833Z,14.06
2023-09-03T03:03:18.912Z,14.02
2023-09-03T03:05:45.849Z,14.05
2023-09-03T03:08:12.696Z,14.04
2023-09-03T03:10:39.922Z,14.04
2023-09-03T03:13:06.804Z,14.02
2023-09-03T03:15:35.425Z,14.02
2023-09-03T03:18:02.464Z,13.97
2023-09-03T03:20:29.728Z,13.89
2023-09-03T03:22:57.442Z,13.82
2023-09-03T03:25:24.470Z,13.76
2023-09-03T03:27:51.462Z,13.75
2023-09-03T03:30:18.423Z,13.68
2023-09-03T03:32:45.535Z,13.66
2023-09-03T03:35:12.551Z,13.61
2023-09-03T03:37:39.505Z,13.61
2023-09-03T03:40:07.683Z,13.64
2023-09-03T03:42:34.628Z,13.65
2023-09-03T03:45:01.569Z,13.67
2023-09-03T03:47:28.583Z,13.68
2023-09-03T03:49:55.607Z,13.69
2023-09-03T03:52:22.794Z,13.69
2023-09-03T03:54:50.865Z,13.72
2023-09-03T03:57:17.761Z,13.69
2023-09-03T03:59:44.745Z,13.72
2023-09-03T04:02:11.751Z,13.72
2023-09-03T04:04:38.650Z,13.70
2023-09-03T04:07:06.136Z,13.68
2023-09-03T04:09:33.061Z,13.68
2023-09-03T04:11:59.956Z,13.69
2023-09-03T04:14:26.923Z,13.73
2023-09-03T04:16:54.044Z,13.71
2023-09-03T04:19:21.655Z,13.73
2023-09-03T04:21:49.017Z,13.70
2023-09-03T04:24:15.858Z,13.67
2023-09-03T04:26:43.330Z,13.70
2023-09-03T04:29:10.266Z,13.71
2023-09-03T04:31:37.574Z,13.74
2023-09-03T04:34:06.910Z,13.74
2023-09-03T04:36:35.140Z,13.74
2023-09-03T04:39:02.217Z,13.70
2023-09-03T04:41:29.101Z,13.72
2023-09-03T04:44:08.738Z,13.74
2023-09-03T04:46:36.028Z,13.71
2023-09-03T04:49:02.980Z,13.71
2023-09-03T04:51:30.227Z,13.76
2023-09-03T04:53:57.125Z,13.77
2023-09-03T04:56:24.965Z,13.79
2023-09-03T04:58:51.904Z,13.79
2023-09-03T05:01:19.376Z,13.78
2023-09-03T05:03:46.535Z,13.75
2023-09-03T05:06:14.349Z,13.71
2023-09-03T05:08:41.273Z,13.69
2023-09-03T05:11:09.074Z,13.62
2023-09-03T05:13:35.988Z,13.54
2023-09-03T05:16:03.689Z,13.54
2023-09-03T05:18:30.609Z,13.58
2023-09-03T05:20:58.540Z,13.54
2023-09-03T05:23:25.409Z,13.52
2023-09-03T05:25:52.355Z,13.55
2023-09-03T05:28:19.744Z,13.58
2023-09-03T05:30:49.462Z,13.57
2023-09-03T05:33:16.878Z,13.63
2023-09-03T05:35:43.904Z,13.64
2023-09-03T05:38:10.876Z,13.65
2023-09-03T05:40:37.851Z,13.60
2023-09-03T05:43:04.871Z,13.63
2023-09-03T05:45:31.828Z,13.66
2023-09-03T05:47:59.200Z,13.71
2023-09-03T05:50:26.586Z,13.76
2023-09-03T05:52:53.598Z,13.83
2023-09-03T05:55:21.391Z,13.92
2023-09-03T05:57:48.610Z,14.00
2023-09-03T06:00:16.096Z,14.04
2023-09-03T06:02:43.019Z,14.07
2023-09-03T06:05:10.608Z,14.08
2023-09-03T06:07:37.585Z,14.11
2023-09-03T06:10:04.852Z,14.14
2023-09-03T06:12:31.791Z,14.11
2023-09-03T06:14:58.809Z,14.14
2023-09-03T06:17:25.632Z,14.20
2023-09-03T06:19:52.773Z,14.26
2023-09-03T06:22:20.195Z,14.34
2023-09-03T06:24:47.063Z,14.41
2023-09-03T06:27:13.975Z,14.48
2023-09-03T06:29:40.870Z,14.55
2023-09-03T06:32:07.755Z,14.63
2023-09-03T06:34:34.614Z,14.70
2023-09-03T06:37:01.544Z,14.79
2023-09-03T06:39:28.891Z,14.86
2023-09-03T06:41:55.883Z,14.93
2023-09-03T06:44:24.483Z,14.98
2023-09-03T06:46:51.566Z,15.03
2023-09-03T06:49:22.005Z,15.11
2023-09-03T06:51:49.909Z,15.17
2023-09-03T06:54:16.801Z,15.26
2023-09-03T06:56:43.797Z,15.33
2023-09-03T06:59:12.155Z,15.39
2023-09-03T07:01:40.604Z,15.45
2023-09-03T07:04:07.576Z,15.56
2023-09-03T07:06:34.554Z,15.62
2023-09-03T07:09:01.479Z,15.70
2023-09-03T07:11:28.419Z,15.76
2023-09-03T07:13:55.360Z,15.81
2023-09-03T07:16:22.321Z,15.89
2023-09-03T07:18:49.855Z,15.98
2023-09-03T07:21:16.702Z,16.12
2023-09-03T07:23:44.252Z,16.19
2023-09-03T07:26:11.160Z,16.31
2023-09-03T07:28:38.588Z,16.42
2023-09-03T07:31:05.736Z,16.52
2023-09-03T07:33:33.674Z,16.62
2023-09-03T07:36:00.933Z,16.76
2023-09-03T07:38:28.905Z,16.89
2023-09-03T07:40:56.256Z,16.95
2023-09-03T07:43:23.862Z,17.03
2023-09-03T07:45:51.389Z,17.06
2023-09-03T07:48:18.553Z,17.17
2023-09-03T07:50:45.569Z,17.32
2023-09-03T07:53:12.515Z,17.44
2023-09-03T07:55:40.622Z,17.52
2023-09-03T07:58:07.734Z,17.67
2023-09-03T08:00:34.624Z,17.78
2023-09-03T08:03:01.667Z,17.86
2023-09-03T08:05:29.092Z,17.94
2023-09-03T08:07:56.364Z,17.94
2023-09-03T08:10:23.971Z,17.99
2023-09-03T08:12:53.701Z,18.12
2023-09-03T08:15:30.155Z,18.26
2023-09-03T08:18:04.913Z,18.30
2023-09-03T08:20:31.976Z,18.37
2023-09-03T08:22:58.997Z,18.45
2023-09-03T08:25:26.077Z,18.48
2023-09-03T08:27:53.101Z,18.60
2023-09-03T08:30:20.437Z,18.57
2023-09-03T08:32:47.432Z,18.69
2023-09-03T08:35:15.193Z,18.79
2023-09-03T08:37:42.201Z,18.80
2023-09-03T08:40:09.425Z,18.86
2023-09-03T08:42:38.683Z,18.96
2023-09-03T08:45:06.108Z,18.97
2023-09-03T08:47:35.080Z,18.96
2023-09-03T08:50:03.457Z,18.90
2023-09-03T08:52:30.882Z,18.89
2023-09-03T08:54:58.037Z,18.87
2023-09-03T08:57:27.145Z,19.01
2023-09-03T08:59:54.052Z,19.14
2023-09-03T09:02:21.471Z,19.27
2023-09-03T09:04:48.527Z,19.31
2023-09-03T09:07:15.720Z,19.50
2023-09-03T09:09:43.339Z,19.57
2023-09-03T09:12:18.433Z,19.60
2023-09-03T09:14:54.031Z,19.58
2023-09-03T09:17:21.402Z,19.62
2023-09-03T09:19:48.551Z,19.68
2023-09-03T09:22:17.245Z,19.66
2023-09-03T09:24:46.837Z,19.82
2023-09-03T09:27:16.822Z,19.85
2023-09-03T09:29:44.168Z,19.91
2023-09-03T09:32:18.851Z,20.03
2023-09-03T09:34:45.892Z,20.09
2023-09-03T09:37:13.229Z,20.21
2023-09-03T09:39:47.848Z,20.18
2023-09-03T09:42:19.873Z,20.27
2023-09-03T09:44:50.209Z,20.33
2023-09-03T09:47:21.523Z,20.42
2023-09-03T09:49:49.533Z,20.47
2023-09-03T09:52:16.993Z,20.61
2023-09-03T09:54:44.211Z,20.64
2023-09-03T09:57:18.002Z,20.76
2023-09-03T09:59:45.711Z,20.79
2023-09-03T10:02:13.854Z,20.94
2023-09-03T10:04:45.410Z,20.95
2023-09-03T10:07:12.944Z,20.83
2023-09-03T10:09:40.403Z,20.90
2023-09-03T10:12:08.185Z,20.97
2023-09-03T10:14:35.719Z,20.98
2023-09-03T10:17:03.934Z,20.93
2023-09-03T10:19:39.055Z,20.87
2023-09-03T10:22:07.298Z,20.98
2023-09-03T10:24:35.495Z,21.09
2023-09-03T10:27:04.940Z,21.13
2023-09-03T10:29:34.041Z,21.13
2023-09-03T10:32:02.078Z,21.17
2023-09-03T10:34:31.311Z,21.28
2023-09-03T10:37:07.263Z,21.27
2023-09-03T10:39:34.633Z,21.28
2023-09-03T10:42:19.540Z,21.27
2023-09-03T10:44:58.252Z,21.37
2023-09-03T10:47:25.743Z,21.46
2023-09-03T10:49:53.736Z,21.50
2023-09-03T10:52:29.681Z,21.53
2023-09-03T10:55:14.832Z,21.57
2023-09-03T10:57:42.683Z,21.60
2023-09-03T11:00:11.073Z,21.62
2023-09-03T11:02:39.269Z,21.62
2023-09-03T11:05:16.348Z,21.60
2023-09-03T11:07:44.702Z,21.60
2023-09-03T11:10:21.612Z,21.62
2023-09-03T11:12:49.445Z,21.67
2023-09-03T11:15:16.981Z,21.62
2023-09-03T11:17:57.316Z,21.57
2023-09-03T11:20:49.425Z,21.46
2023-09-03T11:23:18.284Z,21.64
2023-09-03T11:25:45.584Z,21.70
2023-09-03T11:28:12.955Z,21.78
2023-09-03T11:30:40.988Z,21.79
2023-09-03T11:33:10.324Z,21.82
2023-09-03T11:35:42.052Z,21.75
2023-09-03T11:38:08.951Z,21.88
2023-09-03T11:40:36.186Z,22.00
2023-09-03T11:43:03.500Z,22.12
2023-09-03T11:45:30.760Z,22.13
2023-09-03T11:47:59.274Z,22.11
2023-09-03T11:50:26.302Z,22.01
2023-09-03T11:52:57.354Z,22.12
2023-09-03T11:55:26.307Z,22.19
2023-09-03T11:57:54.433Z,22.26
2023-09-03T12:00:21.535Z,22.44
2023-09-03T12:02:50.150Z,22.60
2023-09-03T12:05:17.405Z,22.69
2023-09-03T12:07:44.315Z,22.73
2023-09-03T12:10:11.661Z,22.66
2023-09-03T12:12:42.657Z,22.57
2023-09-03T12:15:20.101Z,22.53
2023-09-03T12:17:47.646Z,22.51
2023-09-03T12:20:40.627Z,22.44
2023-09-03T12:23:25.338Z,22.55
2023-09-03T12:25:52.244Z,22.49
2023-09-03T12:28:19.246Z,22.58
2023-09-03T12:31:12.521Z,22.55
2023-09-03T12:33:51.896Z,22.81
2023-09-03T12:36:20.377Z,22.89
2023-09-03T12:38:47.863Z,23.02
2023-09-03T12:41:14.955Z,23.11
2023-09-03T12:43:45.050Z,23.13
2023-09-03T12:46:12.665Z,23.20
2023-09-03T12:48:40.064Z,23.21
2023-09-03T12:51:07.009Z,23.23
2023-09-03T12:53:33.856Z,23.25
2023-09-03T12:56:00.723Z,23.25
2023-09-03T12:58:27.637Z,23.20
2023-09-03T13:00:54.624Z,23.13
2023-09-03T13:03:22.060Z,23.12
2023-09-03T13:05:51.441Z,23.16
2023-09-03T13:08:18.907Z,23.28
2023-09-03T13:10:45.854Z,23.33
2023-09-03T13:13:15.542Z,23.47
2023-09-03T13:15:42.488Z,23.69
2023-09-03T13:18:09.633Z,23.92
2023-09-03T13:20:36.808Z,24.12
2023-09-03T13:23:03.840Z,24.27
2023-09-03T13:25:35.252Z,24.39
2023-09-03T13:28:02.526Z,24.60
2023-09-03T13:30:29.415Z,24.60
2023-09-03T13:32:57.313Z,24.70
2023-09-03T13:35:24.534Z,24.96
2023-09-03T13:37:51.450Z,25.28
2023-09-03T13:40:18.994Z,25.45
2023-09-03T13:42:45.848Z,25.83
2023-09-03T13:45:13.919Z,26.05
2023-09-03T13:47:40.938Z,26.25
2023-09-03T13:50:08.551Z,26.54
2023-09-03T13:52:37.023Z,26.93
2023-09-03T13:55:04.068Z,27.44
2023-09-03T13:57:30.959Z,28.02
2023-09-03T13:59:58.598Z,28.55
2023-09-03T14:02:30.161Z,28.84
2023-09-03T14:04:58.726Z,29.08
2023-09-03T14:07:25.825Z,29.34
2023-09-03T14:09:53.221Z,29.59
2023-09-03T14:12:20.465Z,30.11
2023-09-03T14:14:47.310Z,31.06
2023-09-03T14:17:14.186Z,31.08
2023-09-03T14:19:41.092Z,31.14
2023-09-03T14:22:08.092Z,31.17
2023-09-03T14:24:36.345Z,30.71
2023-09-03T14:27:04.327Z,30.52
2023-09-03T14:29:31.578Z,30.34
2023-09-03T14:31:58.517Z,30.20
2023-09-03T14:34:25.436Z,30.21
2023-09-03T14:36:52.370Z,29.47
2023-09-03T14:39:23.115Z,28.93
2023-09-03T14:41:51.396Z,28.82
2023-09-03T14:44:18.342Z,28.95
2023-09-03T14:46:46.264Z,29.09
2023-09-03T14:49:13.581Z,29.41
2023-09-03T14:51:40.577Z,29.82
2023-09-03T14:54:07.606Z,29.95
2023-09-03T14:56:34.434Z,29.84
2023-09-03T14:59:01.849Z,29.50
2023-09-03T15:01:28.916Z,29.08
2023-09-03T15:03:56.310Z,28.20
2023-09-03T15:06:23.965Z,27.74
2023-09-03T15:08:54.277Z,27.14
2023-09-03T15:11:22.455Z,26.50
2023-09-03T15:13:54.164Z,26.03
2023-09-03T15:16:21.860Z,25.59
2023-09-03T15:18:49.000Z,25.39
2023-09-03T15:21:15.931Z,25.07
2023-09-03T15:23:43.483Z,24.99
2023-09-03T15:26:10.432Z,24.86
2023-09-03T15:28:37.468Z,24.81
2023-09-03T15:31:04.912Z,24.72
2023-09-03T15:33:31.856Z,24.55
2023-09-03T15:35:58.776Z,24.54
2023-09-03T15:38:25.752Z,24.51
2023-09-03T15:40:52.653Z,24.46
2023-09-03T15:43:22.464Z,24.37
2023-09-03T15:45:53.192Z,24.32
2023-09-03T15:48:21.467Z,24.26
2023-09-03T15:50:49.020Z,24.24
2023-09-03T15:53:16.082Z,24.31
2023-09-03T15:55:42.977Z,24.23
2023-09-03T15:58:09.838Z,24.19
2023-09-03T16:00:37.256Z,24.13
2023-09-03T16:03:04.756Z,24.06
2023-09-03T16:05:31.669Z,23.97
2023-09-03T16:07:58.574Z,23.91
2023-09-03T16:10:25.587Z,23.84
2023-09-03T16:12:58.204Z,23.83
2023-09-03T16:15:25.913Z,23.84
2023-09-03T16:17:53.128Z,23.88
2023-09-03T16:20:20.703Z,23.93
2023-09-03T16:22:47.661Z,23.96
2023-09-03T16:25:14.701Z,24.00
2023-09-03T16:27:41.767Z,23.96
2023-09-03T16:30:09.743Z,24.05
2023-09-03T16:32:38.945Z,24.19
2023-09-03T16:35:06.158Z,24.41
2023-09-03T16:37:33.142Z,24.87
2023-09-03T16:40:00.190Z,25.32
2023-09-03T16:42:27.116Z,25.35
2023-09-03T16:44:58.473Z,25.38
2023-09-03T16:47:29.088Z,25.45
2023-09-03T16:49:56.320Z,25.88
2023-09-03T16:52:23.823Z,26.37
2023-09-03T16:54:51.446Z,26.60
2023-09-03T16:57:18.983Z,26.53
2023-09-03T16:59:45.900Z,26.28
2023-09-03T17:02:16.235Z,25.92
2023-09-03T17:04:43.691Z,25.79
2023-09-03T17:07:11.759Z,26.07
2023-09-03T17:09:39.107Z,26.05
2023-09-03T17:12:06.662Z,25.94
2023-09-03T17:14:33.538Z,25.60
2023-09-03T17:17:04.963Z,25.22
2023-09-03T17:19:32.797Z,24.76
2023-09-03T17:21:59.680Z,24.33
2023-09-03T17:24:26.534Z,24.06
2023-09-03T17:26:53.595Z,23.76
2023-09-03T17:29:22.314Z,23.53
2023-09-03T17:31:51.229Z,23.36
2023-09-03T17:34:20.317Z,23.24
2023-09-03T17:36:47.524Z,23.16
2023-09-03T17:39:15.116Z,23.00
2023-09-03T17:41:42.513Z,22.84
2023-09-03T17:44:09.780Z,22.72
2023-09-03T17:46:37.060Z,22.61
2023-09-03T17:49:04.829Z,22.51
2023-09-03T17:51:31.872Z,22.47
2023-09-03T17:53:58.960Z,22.36
2023-09-03T17:56:25.929Z,22.24
2023-09-03T17:58:52.968Z,22.19
2023-09-03T18:01:23.110Z,21.98
2023-09-03T18:03:50.828Z,22.00
2023-09-03T18:06:17.807Z,21.92
2023-09-03T18:08:45.139Z,21.79
2023-09-03T18:11:15.366Z,21.69
2023-09-03T18:13:43.081Z,21.66
2023-09-03T18:16:11.707Z,21.58
2023-09-03T18:18:38.665Z,21.47
2023-09-03T18:21:05.595Z,21.47
2023-09-03T18:23:32.629Z,21.41
2023-09-03T18:25:59.577Z,21.32
2023-09-03T18:28:26.499Z,21.21
2023-09-03T18:30:53.396Z,21.13
2023-09-03T18:33:25.323Z,20.97
2023-09-03T18:35:53.794Z,20.85
2023-09-03T18:38:23.260Z,20.77
2023-09-03T18:40:51.397Z,20.59
2023-09-03T18:43:18.292Z,20.50
2023-09-03T18:45:45.820Z,20.38
2023-09-03T18:48:13.649Z,20.33
2023-09-03T18:50:40.501Z,20.27
2023-09-03T18:53:07.387Z,20.24
2023-09-03T18:55:37.586Z,20.23
2023-09-03T18:58:05.256Z,20.17
2023-09-03T19:00:32.801Z,20.16
2023-09-03T19:02:59.858Z,20.17
2023-09-03T19:05:26.792Z,20.15
2023-09-03T19:07:53.883Z,20.12
2023-09-03T19:10:21.404Z,20.05
2023-09-03T19:12:48.588Z,19.91
2023-09-03T19:15:15.607Z,19.80
2023-09-03T19:17:42.563Z,19.71
2023-09-03T19:20:09.665Z,19.61
2023-09-03T19:22:37.045Z,19.50
2023-09-03T19:25:04.644Z,19.40
2023-09-03T19:27:31.547Z,19.24
2023-09-03T19:29:59.722Z,19.21
2023-09-03T19:32:28.404Z,19.19
2023-09-03T19:34:55.443Z,19.13
2023-09-03T19:37:22.394Z,19.10
2023-09-03T19:39:49.616Z,19.08
2023-09-03T19:42:17.077Z,19.02
2023-09-03T19:44:43.996Z,18.98
2023-09-03T19:47:11.014Z,18.89
2023-09-03T19:49:37.960Z,18.80
2023-09-03T19:52:05.070Z,18.71
2023-09-03T19:54:32.214Z,18.64
2023-09-03T19:56:59.067Z,18.63
2023-09-03T19:59:25.962Z,18.60
2023-09-03T20:01:53.172Z,18.58
2023-09-03T20:04:20.401Z,18.55
2023-09-03T20:06:47.270Z,18.50
2023-09-03T20:09:14.115Z,18.48
2023-09-03T20:11:41.079Z,18.42
2023-09-03T20:14:10.616Z,18.35
2023-09-03T20:16:37.511Z,18.31
2023-09-03T20:19:04.791Z,18.30
2023-09-03T20:21:31.811Z,18.28
2023-09-03T20:23:58.840Z,18.26
2023-09-03T20:26:27.220Z,18.19
2023-09-03T20:28:54.305Z,18.14
2023-09-03T20:31:21.652Z,18.08
2023-09-03T20:33:49.035Z,18.03
2023-09-03T20:36:16.156Z,17.99
2023-09-03T20:38:43.209Z,17.94
2023-09-03T20:41:10.340Z,17.88
2023-09-03T20:43:37.278Z,17.82
2023-09-03T20:46:04.731Z,17.74
2023-09-03T20:48:31.751Z,17.70
2023-09-03T20:51:02.078Z,17.58
2023-09-03T20:53:29.201Z,17.50
2023-09-03T20:55:56.682Z,17.46
2023-09-03T20:58:25.223Z,17.43
2023-09-03T21:00:53.022Z,17.40
2023-09-03T21:03:20.620Z,17.40
2023-09-03T21:05:50.789Z,17.35
2023-09-03T21:08:18.285Z,17.30
2023-09-03T21:10:45.192Z,17.27
2023-09-03T21:13:12.040Z,17.28
2023-09-03T21:15:39.534Z,17.24
2023-09-03T21:18:06.532Z,17.17
2023-09-03T21:20:33.517Z,17.13
2023-09-03T21:23:00.485Z,17.03
2023-09-03T21:25:27.431Z,16.96
2023-09-03T21:27:56.431Z,16.98
2023-09-03T21:30:23.269Z,16.97
2023-09-03T21:32:50.821Z,16.95
2023-09-03T21:35:24.168Z,16.92
2023-09-03T21:37:51.781Z,16.88
2023-09-03T21:40:20.651Z,16.85
2023-09-03T21:42:51.943Z,16.81
2023-09-03T21:45:19.329Z,16.81
2023-09-03T21:47:46.236Z,16.78
2023-09-03T21:50:13.117Z,16.75
2023-09-03T21:52:40.075Z,16.66
2023-09-03T21:55:07.352Z,16.63
2023-09-03T21:57:34.501Z,16.61
2023-09-03T22:00:01.628Z,16.60
2023-09-03T22:02:28.693Z,16.57
2023-09-03T22:04:59.083Z,16.58
2023-09-03T22:07:26.924Z,16.57
2023-09-03T22:09:54.146Z,16.57
2023-09-03T22:12:24.371Z,16.54
2023-09-03T22:14:51.510Z,16.47
2023-09-03T22:17:18.398Z,16.43
2023-09-03T22:19:45.259Z,16.39
2023-09-03T22:22:12.627Z,16.37
2023-09-03T22:24:39.572Z,16.32
2023-09-03T22:27:06.497Z,16.24
2023-09-03T22:29:33.382Z,16.23
2023-09-03T22:32:00.283Z,16.19
2023-09-03T22:34:27.157Z,16.16
2023-09-03T22:36:54.114Z,16.15
2023-09-03T22:39:21.478Z,16.11
2023-09-03T22:41:48.302Z,16.08
2023-09-03T22:44:15.625Z,16.12
2023-09-03T22:46:42.486Z,16.09
2023-09-03T22:49:09.398Z,16.02
2023-09-03T22:51:36.219Z,15.97
2023-09-03T22:54:03.641Z,15.94
2023-09-03T22:56:30.595Z,15.88
2023-09-03T22:58:57.623Z,15.79
2023-09-03T23:01:24.596Z,15.70
2023-09-03T23:03:51.672Z,15.60
2023-09-03T23:06:18.676Z,15.58
2023-09-03T23:08:46.162Z,15.55
2023-09-03T23:11:13.067Z,15.56
2023-09-03T23:13:40.325Z,15.52
2023-09-03T23:16:07.244Z,15.54
2023-09-03T23:18:34.901Z,15.51
2023-09-03T23:21:04.713Z,15.51
2023-09-03T23:23:31.598Z,15.48
2023-09-03T23:25:58.690Z,15.48
2023-09-03T23:28:25.740Z,15.51
2023-09-03T23:30:52.886Z,15.49
2023-09-03T23:33:20.338Z,15.47
2023-09-03T23:35:47.199Z,15.45
2023-09-03T23:38:14.124Z,15.44
2023-09-03T23:40:41.273Z,15.43
2023-09-03T23:43:08.152Z,15.40
2023-09-03T23:45:35.114Z,15.41
2023-09-03T23:48:02.159Z,15.39
2023-09-03T23:50:29.120Z,15.37
2023-09-03T23:52:55.939Z,15.34
2023-09-03T23:55:22.973Z,15.32
2023-09-03T23:57:50.460Z,15.27
